createdAt,value
2023-06-16T00:00:12.997Z,88.34
2023-06-16T00:03:03.067Z,88.44
2023-06-16T00:05:32.456Z,88.52
2023-06-16T00:08:02.089Z,88.54
2023-06-16T00:10:31.425Z,88.50
2023-06-16T00:12:59.773Z,88.33
2023-06-16T00:15:27.881Z,88.22
2023-06-16T00:17:58.079Z,88.13
2023-06-16T00:20:27.216Z,88.14
2023-06-16T00:22:56.222Z,88.15
2023-06-16T00:25:24.733Z,88.13
2023-06-16T00:27:53.074Z,87.95
2023-06-16T00:30:21.560Z,87.62
2023-06-16T00:32:49.902Z,87.78
2023-06-16T00:35:18.223Z,87.90
2023-06-16T00:37:46.259Z,87.71
2023-06-16T00:40:14.436Z,87.74
2023-06-16T00:42:42.610Z,87.52
2023-06-16T00:45:11.855Z,87.61
2023-06-16T00:47:40.114Z,87.61
2023-06-16T00:50:09.134Z,87.68
2023-06-16T00:52:38.967Z,87.53
2023-06-16T00:55:10.163Z,87.38
2023-06-16T00:57:40.418Z,87.35
2023-06-16T01:00:12.534Z,87.46
2023-06-16T01:02:41.377Z,87.28
2023-06-16T01:05:10.139Z,87.18
2023-06-16T01:07:53.128Z,86.94
2023-06-16T01:10:54.363Z,86.89
2023-06-16T01:13:29.202Z,87.05
2023-06-16T01:16:03.001Z,87.20
2023-06-16T01:18:34.082Z,87.38
2023-06-16T01:21:22.841Z,87.40
2023-06-16T01:24:09.310Z,87.40
2023-06-16T01:26:41.491Z,87.47
2023-06-16T01:29:12.395Z,88.01
2023-06-16T01:31:42.899Z,88.15
2023-06-16T01:34:13.414Z,88.00
2023-06-16T01:36:43.556Z,87.74
2023-06-16T01:39:15.221Z,87.72
2023-06-16T01:41:44.733Z,87.64
2023-06-16T01:44:13.767Z,87.68
2023-06-16T01:46:43.044Z,87.69
2023-06-16T01:49:13.117Z,87.65
2023-06-16T01:51:41.422Z,87.86
2023-06-16T01:54:09.685Z,88.00
2023-06-16T01:56:37.799Z,88.10
2023-06-16T02:02:17.343Z,88.17
2023-06-16T02:04:49.449Z,88.43
2023-06-16T02:07:23.245Z,88.42
2023-06-16T02:09:52.514Z,88.68
2023-06-16T02:12:20.722Z,88.59
2023-06-16T02:14:49.426Z,88.57
2023-06-16T02:17:17.739Z,88.37
2023-06-16T02:19:46.235Z,87.97
2023-06-16T02:22:14.248Z,87.69
2023-06-16T02:24:43.024Z,87.67
2023-06-16T02:27:11.050Z,87.53
2023-06-16T02:29:39.090Z,87.45
2023-06-16T02:32:07.672Z,87.72
2023-06-16T02:34:35.784Z,87.55
2023-06-16T02:37:04.291Z,87.68
2023-06-16T02:39:33.028Z,87.69
2023-06-16T02:42:01.257Z,87.69
2023-06-16T02:44:29.323Z,87.78
2023-06-16T02:46:58.364Z,87.79
2023-06-16T02:49:27.626Z,87.64
2023-06-16T02:51:56.363Z,87.35
2023-06-16T02:54:24.530Z,87.57
2023-06-16T02:56:52.712Z,87.64
2023-06-16T02:59:22.047Z,87.83
2023-06-16T03:01:50.281Z,87.87
2023-06-16T03:04:28.614Z,87.90
2023-06-16T03:07:07.367Z,87.73
2023-06-16T03:09:40.174Z,87.39
2023-06-16T03:12:10.004Z,87.35
2023-06-16T03:14:42.797Z,87.49
2023-06-16T03:17:22.912Z,87.96
2023-06-16T03:19:51.933Z,87.65
2023-06-16T03:22:27.215Z,87.63
2023-06-16T03:24:56.072Z,87.31
2023-06-16T03:27:24.862Z,86.94
2023-06-16T03:29:59.047Z,87.01
2023-06-16T03:32:28.802Z,86.98
2023-06-16T03:34:57.398Z,86.86
2023-06-16T03:37:25.568Z,86.97
2023-06-16T03:39:53.706Z,86.99
2023-06-16T03:42:22.192Z,87.03
2023-06-16T03:44:50.629Z,86.98
2023-06-16T03:47:20.616Z,87.08
2023-06-16T03:49:48.688Z,85.65
2023-06-16T03:52:16.921Z,83.09
2023-06-16T03:54:45.062Z,80.04
2023-06-16T03:57:14.643Z,77.18
2023-06-16T03:59:43.288Z,74.63
2023-06-16T04:02:12.065Z,72.14
2023-06-16T04:04:46.590Z,70.27
2023-06-16T04:07:15.228Z,67.73
2023-06-16T04:09:43.749Z,65.61
2023-06-16T04:12:12.870Z,64.12
2023-06-16T04:14:41.844Z,62.34
2023-06-16T04:17:10.310Z,60.96
2023-06-16T04:19:39.505Z,59.93
2023-06-16T04:22:08.110Z,58.84
2023-06-16T04:24:46.446Z,57.78
2023-06-16T04:27:14.693Z,56.69
2023-06-16T04:29:43.479Z,55.56
2023-06-16T04:32:15.543Z,54.84
2023-06-16T04:34:46.396Z,54.08
2023-06-16T04:37:15.783Z,53.42
2023-06-16T04:39:43.914Z,52.97
2023-06-16T04:42:14.911Z,52.65
2023-06-16T04:44:43.314Z,52.35
2023-06-16T04:47:13.981Z,51.76
2023-06-16T04:49:42.692Z,51.04
2023-06-16T04:52:10.916Z,50.16
2023-06-16T04:54:39.046Z,49.59
2023-06-16T04:57:09.403Z,49.16
2023-06-16T04:59:37.537Z,48.87
2023-06-16T05:02:07.294Z,47.66
2023-06-16T05:04:35.623Z,47.11
2023-06-16T05:07:04.964Z,46.40
2023-06-16T05:09:33.716Z,46.17
2023-06-16T05:12:02.088Z,45.11
2023-06-16T05:14:32.753Z,45.02
2023-06-16T05:17:01.831Z,45.06
2023-06-16T05:19:31.075Z,44.41
2023-06-16T05:22:01.200Z,44.01
2023-06-16T05:24:32.096Z,43.69
2023-06-16T05:27:01.151Z,43.71
2023-06-16T05:29:30.457Z,43.26
2023-06-16T05:31:59.546Z,43.16
2023-06-16T05:34:27.719Z,43.24
2023-06-16T05:36:55.977Z,42.61
2023-06-16T05:39:24.631Z,42.70
2023-06-16T05:41:53.777Z,42.41
2023-06-16T05:44:22.847Z,42.37
2023-06-16T05:46:51.771Z,41.68
2023-06-16T05:49:20.344Z,41.80
2023-06-16T05:51:48.468Z,41.58
2023-06-16T05:54:16.768Z,40.93
2023-06-16T05:56:44.866Z,41.16
2023-06-16T05:59:12.926Z,41.17
2023-06-16T06:01:41.096Z,40.71
2023-06-16T06:04:12.302Z,40.66
2023-06-16T06:06:40.683Z,40.86
2023-06-16T06:09:08.838Z,41.22
2023-06-16T06:11:37.734Z,41.48
2023-06-16T06:14:05.942Z,40.65
2023-06-16T06:16:34.061Z,40.90
2023-06-16T06:19:02.201Z,41.27
2023-06-16T06:21:30.225Z,41.50
2023-06-16T06:23:59.200Z,41.35
2023-06-16T06:26:27.431Z,41.76
2023-06-16T06:28:55.796Z,40.91
2023-06-16T06:31:24.131Z,40.95
2023-06-16T06:33:52.360Z,41.46
2023-06-16T06:36:31.212Z,42.68
2023-06-16T06:39:00.495Z,42.70
2023-06-16T06:41:29.092Z,43.13
2023-06-16T06:44:02.263Z,42.93
2023-06-16T06:46:49.009Z,43.21
2023-06-16T06:49:17.301Z,43.67
2023-06-16T06:51:45.520Z,43.81
2023-06-16T06:54:13.684Z,43.83
2023-06-16T06:56:41.793Z,44.60
2023-06-16T06:59:09.925Z,44.75
2023-06-16T07:01:39.113Z,45.19
2023-06-16T07:04:07.880Z,45.64
2023-06-16T07:06:36.924Z,45.71
2023-06-16T07:09:05.171Z,45.96
2023-06-16T07:11:35.343Z,45.68
2023-06-16T07:14:03.796Z,46.13
2023-06-16T07:16:32.096Z,46.48
2023-06-16T07:19:00.455Z,46.65
2023-06-16T07:21:29.242Z,45.43
2023-06-16T07:23:57.551Z,44.96
2023-06-16T07:26:26.308Z,45.44
2023-06-16T07:28:54.565Z,44.93
2023-06-16T07:31:22.935Z,44.86
2023-06-16T07:33:51.091Z,45.65
2023-06-16T07:36:19.285Z,45.85
2023-06-16T07:38:47.459Z,45.46
2023-06-16T07:41:15.948Z,45.68
2023-06-16T07:43:44.279Z,47.59
2023-06-16T07:46:12.832Z,48.16
2023-06-16T07:48:41.494Z,48.65
2023-06-16T07:51:09.613Z,49.34
2023-06-16T07:53:37.642Z,50.25
2023-06-16T07:56:05.909Z,49.68
2023-06-16T07:58:33.969Z,49.80
2023-06-16T08:01:02.776Z,50.77
2023-06-16T08:03:32.047Z,50.40
2023-06-16T08:06:00.585Z,50.81
2023-06-16T08:08:28.869Z,51.13
2023-06-16T08:10:59.754Z,51.83
2023-06-16T08:13:27.796Z,51.24
2023-06-16T08:15:56.047Z,51.66
2023-06-16T08:18:25.597Z,52.47
2023-06-16T08:20:53.722Z,51.95
2023-06-16T08:23:21.947Z,52.43
2023-06-16T08:25:51.795Z,52.46
2023-06-16T08:28:19.914Z,53.17
2023-06-16T08:30:48.205Z,52.97
2023-06-16T08:33:17.071Z,52.46
2023-06-16T08:35:45.370Z,53.51
2023-06-16T08:38:13.429Z,52.76
2023-06-16T08:40:41.493Z,52.48
2023-06-16T08:43:12.692Z,52.97
2023-06-16T08:45:41.843Z,52.87
2023-06-16T08:48:12.111Z,51.91
2023-06-16T08:50:41.889Z,51.69
2023-06-16T08:53:12.605Z,52.60
2023-06-16T08:55:44.708Z,52.78
2023-06-16T08:58:14.668Z,52.43
2023-06-16T09:00:45.319Z,50.94
2023-06-16T09:03:14.972Z,50.10
2023-06-16T09:05:43.209Z,50.48
2023-06-16T09:08:12.820Z,49.84
2023-06-16T09:10:41.244Z,49.32
2023-06-16T09:13:09.866Z,48.59
2023-06-16T09:15:38.199Z,47.83
2023-06-16T09:18:08.490Z,48.31
2023-06-16T09:20:40.821Z,46.73
2023-06-16T09:23:10.124Z,46.14
2023-06-16T09:25:39.949Z,46.55
2023-06-16T09:28:10.685Z,47.18
2023-06-16T09:30:43.406Z,46.50
2023-06-16T09:33:12.966Z,46.05
2023-06-16T09:35:42.954Z,46.02
2023-06-16T09:38:11.649Z,45.84
2023-06-16T09:40:40.355Z,46.06
2023-06-16T09:43:11.547Z,44.25
2023-06-16T09:45:40.122Z,42.88
2023-06-16T09:48:11.419Z,43.49
2023-06-16T09:50:41.896Z,43.56
2023-06-16T09:53:10.541Z,43.88
2023-06-16T09:55:40.790Z,43.92
2023-06-16T09:58:09.163Z,45.68
2023-06-16T10:00:37.408Z,45.31
2023-06-16T10:03:09.281Z,45.25
2023-06-16T10:05:41.569Z,44.80
2023-06-16T10:08:11.689Z,44.14
2023-06-16T10:10:44.117Z,43.31
2023-06-16T10:13:12.960Z,43.60
2023-06-16T10:15:44.083Z,42.45
2023-06-16T10:18:16.618Z,42.66
2023-06-16T10:20:47.288Z,43.29
2023-06-16T10:23:16.617Z,42.84
2023-06-16T10:25:45.857Z,43.21
2023-06-16T10:28:15.765Z,43.22
2023-06-16T10:30:45.429Z,42.95
2023-06-16T10:33:19.225Z,44.92
2023-06-16T10:35:57.597Z,45.45
2023-06-16T10:38:36.401Z,44.99
2023-06-16T10:41:07.598Z,45.43
2023-06-16T10:43:35.738Z,45.18
2023-06-16T10:46:15.096Z,43.96
2023-06-16T10:49:12.359Z,45.36
2023-06-16T10:51:51.741Z,45.09
2023-06-16T10:54:38.315Z,44.43
2023-06-16T10:57:14.011Z,43.94
2023-06-16T11:00:02.896Z,44.38
2023-06-16T11:02:34.446Z,44.98
2023-06-16T11:05:08.757Z,44.82
2023-06-16T11:08:07.307Z,45.14
2023-06-16T11:11:15.234Z,45.44
2023-06-16T11:13:43.610Z,45.43
2023-06-16T11:16:11.977Z,45.53
2023-06-16T11:18:40.303Z,46.01
2023-06-16T11:21:12.535Z,45.30
2023-06-16T11:23:45.600Z,44.53
2023-06-16T11:26:19.896Z,43.78
2023-06-16T11:28:49.769Z,43.68
2023-06-16T11:31:20.705Z,42.94
2023-06-16T11:33:49.063Z,42.91
2023-06-16T11:36:22.730Z,43.83
2023-06-16T11:38:52.799Z,44.16
2023-06-16T11:41:23.459Z,44.15
2023-06-16T11:43:52.913Z,43.75
2023-06-16T11:46:24.439Z,43.74
2023-06-16T11:48:53.509Z,44.10
2023-06-16T11:51:23.622Z,44.06
2023-06-16T11:53:52.379Z,44.60
2023-06-16T11:56:24.680Z,43.69
2023-06-16T11:58:54.406Z,42.20
2023-06-16T12:01:23.588Z,42.16
2023-06-16T12:04:04.705Z,42.05
2023-06-16T12:06:37.242Z,41.92
2023-06-16T12:09:05.468Z,42.94
2023-06-16T12:11:35.748Z,43.58
2023-06-16T12:14:03.910Z,44.74
2023-06-16T12:16:32.164Z,45.36
2023-06-16T12:19:01.154Z,44.12
2023-06-16T12:21:30.336Z,43.92
2023-06-16T12:24:00.293Z,43.33
2023-06-16T12:26:31.832Z,44.02
2023-06-16T12:29:03.388Z,42.56
2023-06-16T12:31:33.215Z,42.53
2023-06-16T12:34:01.446Z,43.13
2023-06-16T12:36:29.937Z,43.28
2023-06-16T12:39:00.489Z,43.73
2023-06-16T12:41:30.399Z,43.66
2023-06-16T12:43:58.629Z,43.53
2023-06-16T12:46:26.859Z,43.32
2023-06-16T12:48:55.022Z,43.46
2023-06-16T12:51:23.663Z,43.98
2023-06-16T12:53:51.841Z,44.72
2023-06-16T12:56:20.113Z,45.23
2023-06-16T12:58:48.256Z,45.12
2023-06-16T13:01:16.382Z,45.87
2023-06-16T13:03:48.456Z,45.28
2023-06-16T13:06:20.468Z,44.82
2023-06-16T13:08:49.652Z,44.67
2023-06-16T13:11:19.274Z,44.95
2023-06-16T13:13:47.509Z,44.86
2023-06-16T13:16:18.356Z,44.69
2023-06-16T13:18:46.990Z,44.80
2023-06-16T13:21:16.511Z,45.10
2023-06-16T13:23:44.857Z,45.05
2023-06-16T13:26:15.082Z,45.21
2023-06-16T13:28:43.394Z,43.80
2023-06-16T13:31:13.583Z,43.04
2023-06-16T13:33:43.506Z,42.90
2023-06-16T13:36:19.655Z,43.00
2023-06-16T13:38:48.762Z,43.58
2023-06-16T13:41:17.018Z,44.61
2023-06-16T13:43:48.166Z,44.84
2023-06-16T13:46:17.793Z,47.36
2023-06-16T13:48:46.681Z,47.30
2023-06-16T13:51:15.254Z,47.07
2023-06-16T13:53:46.890Z,47.45
2023-06-16T13:56:15.008Z,47.63
2023-06-16T13:58:43.131Z,48.27
2023-06-16T14:01:11.482Z,48.14
2023-06-16T14:03:39.716Z,44.36
2023-06-16T14:06:08.159Z,41.36
2023-06-16T14:08:36.586Z,40.25
2023-06-16T14:11:04.667Z,40.12
2023-06-16T14:13:32.722Z,40.14
2023-06-16T14:16:00.857Z,43.88
2023-06-16T14:18:28.874Z,46.38
2023-06-16T14:20:57.017Z,47.04
2023-06-16T14:23:25.178Z,47.48
2023-06-16T14:25:53.386Z,48.03
2023-06-16T14:28:21.452Z,48.21
2023-06-16T14:30:49.614Z,48.37
2023-06-16T14:33:17.889Z,48.30
2023-06-16T14:35:46.133Z,48.11
2023-06-16T14:38:15.134Z,47.92
2023-06-16T14:40:43.435Z,47.92
2023-06-16T14:43:11.578Z,47.98
2023-06-16T14:45:39.779Z,47.95
2023-06-16T14:48:07.981Z,47.80
2023-06-16T14:50:36.262Z,47.89
2023-06-16T14:53:04.482Z,48.43
2023-06-16T14:55:32.754Z,49.26
2023-06-16T14:58:01.177Z,49.72
2023-06-16T15:00:29.309Z,49.39
2023-06-16T15:02:57.595Z,49.58
2023-06-16T15:05:25.909Z,49.81
2023-06-16T15:07:54.041Z,49.80
2023-06-16T15:10:22.727Z,50.37
2023-06-16T15:12:51.330Z,50.69
2023-06-16T15:15:19.573Z,50.73
2023-06-16T15:17:47.674Z,50.97
2023-06-16T15:20:15.967Z,51.09
2023-06-16T15:22:44.094Z,51.24
2023-06-16T15:25:12.885Z,51.63
2023-06-16T15:27:41.061Z,51.92
2023-06-16T15:30:09.712Z,52.11
2023-06-16T15:32:39.072Z,51.95
2023-06-16T15:35:08.047Z,51.78
2023-06-16T15:37:36.194Z,51.97
2023-06-16T15:40:05.001Z,52.43
2023-06-16T15:42:33.152Z,52.47
2023-06-16T15:45:01.582Z,52.86
2023-06-16T15:47:29.705Z,53.32
2023-06-16T15:49:57.940Z,53.28
2023-06-16T15:52:26.151Z,53.29
2023-06-16T15:54:54.377Z,53.24
2023-06-16T15:57:23.108Z,53.39
2023-06-16T15:59:51.413Z,53.76
2023-06-16T16:02:19.680Z,53.93
2023-06-16T16:04:47.933Z,54.20
2023-06-16T16:07:16.415Z,54.28
2023-06-16T16:09:44.692Z,54.57
2023-06-16T16:12:13.317Z,55.39
2023-06-16T16:14:41.467Z,55.37
2023-06-16T16:17:09.695Z,55.56
2023-06-16T16:19:37.999Z,55.59
2023-06-16T16:22:07.602Z,55.49
2023-06-16T16:24:35.910Z,55.45
2023-06-16T16:27:05.077Z,55.59
2023-06-16T16:29:34.475Z,55.75
2023-06-16T16:32:03.260Z,55.61
2023-06-16T16:34:31.981Z,54.22
2023-06-16T16:37:03.433Z,53.80
2023-06-16T16:39:32.605Z,53.61
2023-06-16T16:42:01.080Z,53.68
2023-06-16T16:44:31.297Z,53.83
2023-06-16T16:47:01.824Z,53.94
2023-06-16T16:49:30.510Z,54.15
2023-06-16T16:51:58.595Z,54.17
2023-06-16T16:54:26.971Z,54.00
2023-06-16T16:56:55.132Z,53.66
2023-06-16T16:59:27.455Z,53.46
2023-06-16T17:01:55.651Z,53.60
2023-06-16T17:04:25.254Z,53.53
2023-06-16T17:06:54.557Z,53.34
2023-06-16T17:09:23.194Z,53.21
2023-06-16T17:11:51.337Z,52.92
2023-06-16T17:14:19.510Z,52.97
2023-06-16T17:16:47.582Z,53.24
2023-06-16T17:19:15.757Z,53.11
2023-06-16T17:21:43.901Z,52.83
2023-06-16T17:24:12.109Z,52.46
2023-06-16T17:26:40.286Z,52.54
2023-06-16T17:29:08.654Z,52.38
2023-06-16T17:31:36.765Z,52.60
2023-06-16T17:34:04.900Z,52.50
2023-06-16T17:36:33.060Z,52.50
2023-06-16T17:39:01.240Z,52.72
2023-06-16T17:41:29.615Z,52.80
2023-06-16T17:44:04.869Z,53.06
2023-06-16T17:46:36.833Z,53.52
2023-06-16T17:49:08.355Z,53.88
2023-06-16T17:51:37.803Z,54.09
2023-06-16T17:54:06.594Z,54.29
2023-06-16T17:56:34.834Z,54.46
2023-06-16T17:59:03.004Z,54.93
2023-06-16T18:01:31.585Z,54.90
2023-06-16T18:04:00.096Z,55.06
2023-06-16T18:06:28.341Z,55.31
2023-06-16T18:08:57.639Z,55.53
2023-06-16T18:11:26.122Z,55.65
2023-06-16T18:13:54.355Z,55.97
2023-06-16T18:16:23.119Z,56.11
2023-06-16T18:18:51.763Z,56.47
2023-06-16T18:21:19.939Z,56.62
2023-06-16T18:23:48.265Z,56.89
2023-06-16T18:26:17.820Z,57.22
2023-06-16T18:28:46.012Z,57.35
2023-06-16T18:31:14.444Z,57.22
2023-06-16T18:33:42.546Z,57.48
2023-06-16T18:36:11.542Z,57.35
2023-06-16T18:38:46.316Z,57.79
2023-06-16T18:41:14.545Z,57.71
2023-06-16T18:43:42.620Z,57.76
2023-06-16T18:46:11.356Z,57.89
2023-06-16T18:48:39.545Z,58.14
2023-06-16T18:51:08.424Z,58.13
2023-06-16T18:53:36.743Z,58.12
2023-06-16T18:56:05.123Z,58.43
2023-06-16T18:58:33.337Z,58.53
2023-06-16T19:01:01.465Z,58.73
2023-06-16T19:03:29.733Z,58.97
2023-06-16T19:05:58.123Z,59.24
2023-06-16T19:08:26.186Z,59.40
2023-06-16T19:10:54.158Z,59.75
2023-06-16T19:13:22.340Z,60.19
2023-06-16T19:15:50.705Z,60.65
2023-06-16T19:18:18.949Z,61.08
2023-06-16T19:20:47.056Z,61.34
2023-06-16T19:23:17.494Z,61.52
2023-06-16T19:25:45.666Z,61.68
2023-06-16T19:28:16.525Z,62.02
2023-06-16T19:30:44.764Z,62.14
2023-06-16T19:33:15.409Z,62.52
2023-06-16T19:35:43.777Z,62.63
2023-06-16T19:38:11.955Z,62.92
2023-06-16T19:40:40.114Z,63.12
2023-06-16T19:43:08.288Z,63.29
2023-06-16T19:45:36.663Z,63.27
2023-06-16T19:48:05.960Z,63.45
2023-06-16T19:50:34.161Z,63.87
2023-06-16T19:53:02.410Z,63.92
2023-06-16T19:55:37.499Z,64.18
2023-06-16T19:58:18.311Z,64.48
2023-06-16T20:00:46.929Z,64.72
2023-06-16T20:03:15.707Z,64.92
2023-06-16T20:05:43.926Z,65.01
2023-06-16T20:08:12.033Z,64.96
2023-06-16T20:10:41.334Z,64.99
2023-06-16T20:13:09.805Z,65.14
2023-06-16T20:15:38.407Z,65.29
2023-06-16T20:18:07.240Z,65.60
2023-06-16T20:20:35.657Z,65.88
2023-06-16T20:23:04.684Z,66.13
2023-06-16T20:25:32.920Z,66.60
2023-06-16T20:28:01.204Z,66.60
2023-06-16T20:30:29.488Z,66.75
2023-06-16T20:32:57.952Z,66.73
2023-06-16T20:35:27.258Z,66.72
2023-06-16T20:37:58.694Z,67.03
2023-06-16T20:40:28.543Z,66.87
2023-06-16T20:42:57.702Z,67.02
2023-06-16T20:45:26.259Z,66.80
2023-06-16T20:47:55.015Z,66.59
2023-06-16T20:50:28.597Z,65.99
2023-06-16T20:52:57.994Z,65.68
2023-06-16T20:57:57.382Z,64.58
2023-06-16T21:00:28.784Z,64.22
2023-06-16T21:02:57.221Z,63.84
2023-06-16T21:05:30.377Z,63.38
2023-06-16T21:07:59.426Z,63.16
2023-06-16T21:10:27.903Z,62.99
2023-06-16T21:12:56.400Z,62.95
2023-06-16T21:15:24.456Z,62.81
2023-06-16T21:17:52.658Z,62.68
2023-06-16T21:20:21.819Z,62.55
2023-06-16T21:22:52.201Z,62.62
2023-06-16T21:25:20.606Z,62.61
2023-06-16T21:27:48.782Z,62.49
2023-06-16T21:30:17.335Z,62.36
2023-06-16T21:32:45.656Z,62.33
2023-06-16T21:35:13.815Z,62.21
2023-06-16T21:37:41.993Z,62.24
2023-06-16T21:40:12.031Z,62.29
2023-06-16T21:42:42.343Z,62.39
2023-06-16T21:45:13.784Z,62.44
2023-06-16T21:47:42.503Z,62.36
2023-06-16T21:50:10.755Z,62.49
2023-06-16T21:52:39.037Z,62.48
2023-06-16T21:55:08.441Z,62.56
2023-06-16T21:57:37.122Z,62.48
2023-06-16T22:00:10.174Z,62.54
2023-06-16T22:02:39.255Z,62.61
2023-06-16T22:05:08.732Z,62.78
2023-06-16T22:07:40.456Z,63.04
2023-06-16T22:10:10.126Z,63.15
2023-06-16T22:12:38.634Z,63.14
2023-06-16T22:15:07.373Z,63.50
2023-06-16T22:17:36.801Z,63.51
2023-06-16T22:20:07.297Z,63.66
2023-06-16T22:22:35.725Z,63.76
2023-06-16T22:25:04.416Z,63.68
2023-06-16T22:27:33.421Z,63.80
2023-06-16T22:30:01.629Z,63.73
2023-06-16T22:32:30.191Z,63.66
2023-06-16T22:34:58.382Z,63.83
2023-06-16T22:37:26.504Z,63.86
2023-06-16T22:39:54.776Z,63.92
2023-06-16T22:42:24.607Z,63.95
2023-06-16T22:44:52.806Z,63.99
2023-06-16T22:47:21.139Z,63.88
2023-06-16T22:49:49.202Z,63.71
2023-06-16T22:52:17.643Z,63.68
2023-06-16T22:54:45.958Z,63.49
2023-06-16T22:57:14.150Z,63.42
2023-06-16T22:59:42.148Z,63.30
2023-06-16T23:02:10.276Z,63.36
2023-06-16T23:04:38.454Z,63.32
2023-06-16T23:07:06.624Z,63.69
2023-06-16T23:09:34.899Z,63.68
2023-06-16T23:12:03.077Z,63.66
2023-06-16T23:14:31.634Z,63.58
2023-06-16T23:16:59.830Z,63.63
2023-06-16T23:19:27.963Z,63.86
2023-06-16T23:21:56.582Z,64.18
2023-06-16T23:24:24.684Z,64.17
2023-06-16T23:26:54.928Z,64.21
2023-06-16T23:29:23.475Z,64.18
2023-06-16T23:31:51.472Z,64.23
2023-06-16T23:34:20.548Z,64.48
2023-06-16T23:36:48.603Z,64.19
2023-06-16T23:39:16.872Z,63.91
2023-06-16T23:41:45.147Z,63.41
2023-06-16T23:44:13.414Z,64.09
2023-06-16T23:46:41.505Z,64.41
2023-06-16T23:49:09.555Z,64.39
2023-06-16T23:51:37.727Z,64.05
2023-06-16T23:54:06.188Z,64.20
2023-06-16T23:56:34.276Z,64.28
2023-06-16T23:59:02.466Z,63.80
